sensor_id;sensor_type;location;lat;lon;timestamp;P1;durP1;ratioP1;P2;durP2;ratioP2
72575;SDS011;60613;48.658;2.328;2023-04-06T06:02:36;6.03;;;2.28;;
72575;SDS011;60613;48.658;2.328;2023-04-06T06:05:01;5.97;;;2.50;;
72575;SDS011;60613;48.658;2.328;2023-04-06T06:07:27;4.95;;;2.05;;
72575;SDS011;60613;48.658;2.328;2023-04-06T06:09:56;7.07;;;2.63;;
72575;SDS011;60613;48.658;2.328;2023-04-06T06:12:22;5.70;;;2.28;;
72575;SDS011;60613;48.658;2.328;2023-04-06T06:14:48;6.27;;;2.60;;
72575;SDS011;60613;48.658;2.328;2023-04-06T06:17:13;5.93;;;2.50;;
72575;SDS011;60613;48.658;2.328;2023-04-06T06:19:40;6.33;;;2.30;;
72575;SDS011;60613;48.658;2.328;2023-04-06T06:22:05;6.50;;;2.30;;
72575;SDS011;60613;48.658;2.328;2023-04-06T06:24:31;5.57;;;2.37;;
72575;SDS011;60613;48.658;2.328;2023-04-06T06:26:57;5.55;;;2.40;;
72575;SDS011;60613;48.658;2.328;2023-04-06T06:29:23;5.50;;;2.40;;
72575;SDS011;60613;48.658;2.328;2023-04-06T06:31:49;5.20;;;2.40;;
72575;SDS011;60613;48.658;2.328;2023-04-06T06:34:14;9.35;;;4.90;;
72575;SDS011;60613;48.658;2.328;2023-04-06T06:36:40;10.40;;;5.87;;
72575;SDS011;60613;48.658;2.328;2023-04-06T06:39:06;12.32;;;7.10;;
72575;SDS011;60613;48.658;2.328;2023-04-06T06:41:31;11.50;;;6.23;;
72575;SDS011;60613;48.658;2.328;2023-04-06T06:43:57;10.65;;;5.65;;
72575;SDS011;60613;48.658;2.328;2023-04-06T06:46:22;11.27;;;6.43;;
72575;SDS011;60613;48.658;2.328;2023-04-06T06:48:48;11.67;;;6.97;;
72575;SDS011;60613;48.658;2.328;2023-04-06T06:51:14;11.90;;;7.30;;
72575;SDS011;60613;48.658;2.328;2023-04-06T06:53:39;14.17;;;7.67;;
72575;SDS011;60613;48.658;2.328;2023-04-06T06:56:05;12.38;;;7.07;;
72575;SDS011;60613;48.658;2.328;2023-04-06T06:58:31;12.70;;;6.35;;
72575;SDS011;60613;48.658;2.328;2023-04-06T07:01:00;11.70;;;4.70;;
72575;SDS011;60613;48.658;2.328;2023-04-06T07:03:25;8.82;;;4.00;;
72575;SDS011;60613;48.658;2.328;2023-04-06T07:05:51;8.25;;;3.75;;
72575;SDS011;60613;48.658;2.328;2023-04-06T07:08:20;8.48;;;3.50;;
72575;SDS011;60613;48.658;2.328;2023-04-06T07:10:47;7.13;;;3.50;;
72575;SDS011;60613;48.658;2.328;2023-04-06T07:13:13;7.20;;;2.88;;
72575;SDS011;60613;48.658;2.328;2023-04-06T07:15:46;6.82;;;3.33;;
72575;SDS011;60613;48.658;2.328;2023-04-06T07:18:12;7.45;;;3.20;;
72575;SDS011;60613;48.658;2.328;2023-04-06T07:20:38;9.17;;;3.30;;
72575;SDS011;60613;48.658;2.328;2023-04-06T07:23:03;6.32;;;2.63;;
72575;SDS011;60613;48.658;2.328;2023-04-06T07:25:29;14.50;;;4.60;;
72575;SDS011;60613;48.658;2.328;2023-04-06T07:27:55;11.07;;;4.13;;
72575;SDS011;60613;48.658;2.328;2023-04-06T07:30:21;7.93;;;3.30;;
72575;SDS011;60613;48.658;2.328;2023-04-06T07:32:47;9.18;;;3.28;;
72575;SDS011;60613;48.658;2.328;2023-04-06T07:35:13;9.05;;;3.53;;
72575;SDS011;60613;48.658;2.328;2023-04-06T07:37:39;9.18;;;2.97;;
72575;SDS011;60613;48.658;2.328;2023-04-06T07:40:05;10.27;;;3.20;;
72575;SDS011;60613;48.658;2.328;2023-04-06T07:42:31;10.77;;;3.20;;
72575;SDS011;60613;48.658;2.328;2023-04-06T07:44:58;8.68;;;3.42;;
72575;SDS011;60613;48.658;2.328;2023-04-06T07:47:23;8.63;;;3.40;;
72575;SDS011;60613;48.658;2.328;2023-04-06T07:49:49;9.20;;;3.10;;
72575;SDS011;60613;48.658;2.328;2023-04-06T07:52:15;14.50;;;3.47;;
72575;SDS011;60613;48.658;2.328;2023-04-06T07:54:40;9.05;;;3.20;;
72575;SDS011;60613;48.658;2.328;2023-04-06T07:57:06;8.82;;;3.08;;
72575;SDS011;60613;48.658;2.328;2023-04-06T07:59:32;7.17;;;2.90;;
72575;SDS011;60613;48.658;2.328;2023-04-06T08:01:58;7.85;;;3.05;;
72575;SDS011;60613;48.658;2.328;2023-04-06T08:04:24;8.80;;;3.30;;
72575;SDS011;60613;48.658;2.328;2023-04-06T08:06:49;7.40;;;2.75;;
72575;SDS011;60613;48.658;2.328;2023-04-06T08:09:15;8.03;;;2.90;;
72575;SDS011;60613;48.658;2.328;2023-04-06T08:11:41;8.65;;;3.28;;
72575;SDS011;60613;48.658;2.328;2023-04-06T08:14:06;13.60;;;3.07;;
72575;SDS011;60613;48.658;2.328;2023-04-06T08:16:32;9.40;;;3.15;;
72575;SDS011;60613;48.658;2.328;2023-04-06T08:18:58;8.53;;;3.00;;
72575;SDS011;60613;48.658;2.328;2023-04-06T08:21:23;8.93;;;3.03;;
72575;SDS011;60613;48.658;2.328;2023-04-06T08:23:49;8.70;;;3.00;;
72575;SDS011;60613;48.658;2.328;2023-04-06T08:26:15;10.30;;;2.90;;
72575;SDS011;60613;48.658;2.328;2023-04-06T08:28:40;9.40;;;3.10;;
72575;SDS011;60613;48.658;2.328;2023-04-06T08:31:06;7.85;;;2.80;;
72575;SDS011;60613;48.658;2.328;2023-04-06T08:33:35;8.77;;;3.33;;
72575;SDS011;60613;48.658;2.328;2023-04-06T08:36:14;10.27;;;4.17;;
72575;SDS011;60613;48.658;2.328;2023-04-06T08:38:40;9.25;;;3.78;;
72575;SDS011;60613;48.658;2.328;2023-04-06T08:41:08;9.05;;;3.72;;
72575;SDS011;60613;48.658;2.328;2023-04-06T08:43:36;7.20;;;2.90;;
72575;SDS011;60613;48.658;2.328;2023-04-06T08:46:07;7.43;;;2.80;;
72575;SDS011;60613;48.658;2.328;2023-04-06T08:48:33;6.97;;;2.67;;
72575;SDS011;60613;48.658;2.328;2023-04-06T08:51:01;7.68;;;3.00;;
72575;SDS011;60613;48.658;2.328;2023-04-06T08:53:27;6.05;;;2.60;;
72575;SDS011;60613;48.658;2.328;2023-04-06T08:55:53;7.50;;;2.83;;
72575;SDS011;60613;48.658;2.328;2023-04-06T08:58:22;7.03;;;3.03;;
72575;SDS011;60613;48.658;2.328;2023-04-06T09:00:48;6.37;;;2.80;;
72575;SDS011;60613;48.658;2.328;2023-04-06T09:03:15;8.93;;;3.00;;
72575;SDS011;60613;48.658;2.328;2023-04-06T09:05:42;7.53;;;2.90;;
72575;SDS011;60613;48.658;2.328;2023-04-06T09:08:09;8.00;;;2.95;;
72575;SDS011;60613;48.658;2.328;2023-04-06T09:10:35;7.93;;;2.60;;
72575;SDS011;60613;48.658;2.328;2023-04-06T09:13:04;7.03;;;2.80;;
72575;SDS011;60613;48.658;2.328;2023-04-06T09:15:30;6.50;;;2.38;;
72575;SDS011;60613;48.658;2.328;2023-04-06T09:17:56;6.93;;;2.50;;
72575;SDS011;60613;48.658;2.328;2023-04-06T09:20:25;6.83;;;2.30;;
72575;SDS011;60613;48.658;2.328;2023-04-06T09:22:53;7.50;;;2.55;;
72575;SDS011;60613;48.658;2.328;2023-04-06T09:25:20;8.15;;;2.35;;
72575;SDS011;60613;48.658;2.328;2023-04-06T09:28:03;6.18;;;2.30;;
72575;SDS011;60613;48.658;2.328;2023-04-06T09:30:29;8.70;;;2.40;;
72575;SDS011;60613;48.658;2.328;2023-04-06T09:32:56;6.85;;;2.70;;
72575;SDS011;60613;48.658;2.328;2023-04-06T09:35:23;8.27;;;2.60;;
72575;SDS011;60613;48.658;2.328;2023-04-06T09:37:51;8.52;;;2.60;;
72575;SDS011;60613;48.658;2.328;2023-04-06T09:40:17;8.90;;;2.70;;
72575;SDS011;60613;48.658;2.328;2023-04-06T09:42:47;7.10;;;2.17;;
72575;SDS011;60613;48.658;2.328;2023-04-06T09:45:16;8.05;;;2.45;;
72575;SDS011;60613;48.658;2.328;2023-04-06T09:47:43;7.07;;;2.72;;
72575;SDS011;60613;48.658;2.328;2023-04-06T09:50:10;7.30;;;2.20;;
72575;SDS011;60613;48.658;2.328;2023-04-06T09:52:46;6.40;;;2.10;;
72575;SDS011;60613;48.658;2.328;2023-04-06T09:55:39;6.53;;;2.22;;
72575;SDS011;60613;48.658;2.328;2023-04-06T09:58:12;6.78;;;2.50;;
72575;SDS011;60613;48.658;2.328;2023-04-06T10:03:38;5.72;;;1.90;;
72575;SDS011;60613;48.658;2.328;2023-04-06T10:06:25;6.37;;;2.00;;
72575;SDS011;60613;48.658;2.328;2023-04-06T10:08:54;6.10;;;2.10;;
72575;SDS011;60613;48.658;2.328;2023-04-06T10:11:21;6.35;;;1.80;;
72575;SDS011;60613;48.658;2.328;2023-04-06T10:13:47;5.28;;;1.98;;
72575;SDS011;60613;48.658;2.328;2023-04-06T10:16:15;6.35;;;2.05;;
72575;SDS011;60613;48.658;2.328;2023-04-06T10:18:43;4.53;;;1.73;;
72575;SDS011;60613;48.658;2.328;2023-04-06T10:21:13;5.97;;;2.08;;
72575;SDS011;60613;48.658;2.328;2023-04-06T10:24:17;6.10;;;2.00;;
72575;SDS011;60613;48.658;2.328;2023-04-06T10:26:37;6.68;;;1.80;;
72575;SDS011;60613;48.658;2.328;2023-04-06T10:29:03;4.35;;;1.85;;
72575;SDS011;60613;48.658;2.328;2023-04-06T10:31:30;5.37;;;1.63;;
72575;SDS011;60613;48.658;2.328;2023-04-06T10:34:00;4.78;;;1.80;;
72575;SDS011;60613;48.658;2.328;2023-04-06T10:36:27;3.95;;;1.60;;
72575;SDS011;60613;48.658;2.328;2023-04-06T10:38:57;5.85;;;1.83;;
72575;SDS011;60613;48.658;2.328;2023-04-06T10:41:32;5.82;;;1.83;;
72575;SDS011;60613;48.658;2.328;2023-04-06T10:43:59;5.27;;;1.60;;
72575;SDS011;60613;48.658;2.328;2023-04-06T10:46:26;4.53;;;1.80;;
72575;SDS011;60613;48.658;2.328;2023-04-06T10:48:53;5.15;;;1.75;;
72575;SDS011;60613;48.658;2.328;2023-04-06T10:51:24;4.68;;;1.50;;
72575;SDS011;60613;48.658;2.328;2023-04-06T10:53:54;4.88;;;1.58;;
72575;SDS011;60613;48.658;2.328;2023-04-06T10:56:24;5.33;;;1.60;;
72575;SDS011;60613;48.658;2.328;2023-04-06T10:58:53;4.18;;;1.60;;
72575;SDS011;60613;48.658;2.328;2023-04-06T11:01:23;3.20;;;1.50;;
72575;SDS011;60613;48.658;2.328;2023-04-06T11:03:55;4.15;;;1.70;;
72575;SDS011;60613;48.658;2.328;2023-04-06T11:06:24;4.53;;;1.60;;
72575;SDS011;60613;48.658;2.328;2023-04-06T11:08:51;5.03;;;1.70;;
72575;SDS011;60613;48.658;2.328;2023-04-06T11:11:18;4.68;;;1.70;;
72575;SDS011;60613;48.658;2.328;2023-04-06T11:13:46;4.18;;;1.63;;
72575;SDS011;60613;48.658;2.328;2023-04-06T11:16:16;3.65;;;1.50;;
72575;SDS011;60613;48.658;2.328;2023-04-06T11:18:47;4.00;;;1.50;;
72575;SDS011;60613;48.658;2.328;2023-04-06T11:21:12;4.47;;;1.50;;
72575;SDS011;60613;48.658;2.328;2023-04-06T11:23:38;5.75;;;1.52;;
72575;SDS011;60613;48.658;2.328;2023-04-06T11:26:04;3.77;;;1.30;;
72575;SDS011;60613;48.658;2.328;2023-04-06T11:28:29;4.60;;;1.63;;
72575;SDS011;60613;48.658;2.328;2023-04-06T11:30:55;4.07;;;1.37;;
72575;SDS011;60613;48.658;2.328;2023-04-06T11:33:21;3.43;;;1.40;;
72575;SDS011;60613;48.658;2.328;2023-04-06T11:35:47;4.05;;;1.50;;
72575;SDS011;60613;48.658;2.328;2023-04-06T11:38:13;4.20;;;1.20;;
72575;SDS011;60613;48.658;2.328;2023-04-06T11:40:39;4.20;;;1.30;;
72575;SDS011;60613;48.658;2.328;2023-04-06T11:43:05;3.20;;;1.37;;
72575;SDS011;60613;48.658;2.328;2023-04-06T11:45:39;3.63;;;1.30;;
72575;SDS011;60613;48.658;2.328;2023-04-06T11:48:17;4.60;;;1.30;;
72575;SDS011;60613;48.658;2.328;2023-04-06T11:50:46;5.55;;;1.30;;
72575;SDS011;60613;48.658;2.328;2023-04-06T11:53:12;6.72;;;1.60;;
72575;SDS011;60613;48.658;2.328;2023-04-06T11:55:38;4.47;;;1.30;;
72575;SDS011;60613;48.658;2.328;2023-04-06T11:58:04;4.72;;;1.42;;
72575;SDS011;60613;48.658;2.328;2023-04-06T12:00:29;4.60;;;1.57;;
72575;SDS011;60613;48.658;2.328;2023-04-06T12:02:59;5.25;;;1.40;;
72575;SDS011;60613;48.658;2.328;2023-04-06T12:05:26;5.80;;;1.50;;
72575;SDS011;60613;48.658;2.328;2023-04-06T12:07:52;2.97;;;1.30;;
72575;SDS011;60613;48.658;2.328;2023-04-06T12:10:17;3.70;;;1.30;;
72575;SDS011;60613;48.658;2.328;2023-04-06T12:12:43;4.03;;;1.30;;
72575;SDS011;60613;48.658;2.328;2023-04-06T12:15:10;4.70;;;1.30;;
72575;SDS011;60613;48.658;2.328;2023-04-06T12:17:35;5.28;;;1.30;;
72575;SDS011;60613;48.658;2.328;2023-04-06T12:20:01;4.22;;;1.30;;
72575;SDS011;60613;48.658;2.328;2023-04-06T12:22:27;4.43;;;1.33;;
72575;SDS011;60613;48.658;2.328;2023-04-06T12:24:53;3.10;;;1.30;;
72575;SDS011;60613;48.658;2.328;2023-04-06T12:27:19;5.32;;;1.30;;
72575;SDS011;60613;48.658;2.328;2023-04-06T12:29:45;3.55;;;1.23;;
72575;SDS011;60613;48.658;2.328;2023-04-06T12:32:12;2.67;;;1.10;;
72575;SDS011;60613;48.658;2.328;2023-04-06T12:34:37;4.15;;;1.17;;
72575;SDS011;60613;48.658;2.328;2023-04-06T12:37:03;2.85;;;1.17;;
72575;SDS011;60613;48.658;2.328;2023-04-06T12:39:29;3.47;;;1.30;;
72575;SDS011;60613;48.658;2.328;2023-04-06T12:41:55;3.33;;;1.10;;
72575;SDS011;60613;48.658;2.328;2023-04-06T12:44:22;3.90;;;1.20;;
72575;SDS011;60613;48.658;2.328;2023-04-06T12:46:47;4.10;;;1.20;;
72575;SDS011;60613;48.658;2.328;2023-04-06T12:49:13;5.18;;;1.38;;
72575;SDS011;60613;48.658;2.328;2023-04-06T12:51:41;5.22;;;1.40;;
72575;SDS011;60613;48.658;2.328;2023-04-06T12:54:07;3.37;;;1.30;;
72575;SDS011;60613;48.658;2.328;2023-04-06T12:56:32;3.95;;;1.27;;
72575;SDS011;60613;48.658;2.328;2023-04-06T12:58:58;3.53;;;1.30;;
72575;SDS011;60613;48.658;2.328;2023-04-06T13:01:24;6.60;;;1.58;;
72575;SDS011;60613;48.658;2.328;2023-04-06T13:03:51;3.67;;;1.10;;
72575;SDS011;60613;48.658;2.328;2023-04-06T13:06:17;4.63;;;1.40;;
72575;SDS011;60613;48.658;2.328;2023-04-06T13:08:42;4.83;;;1.27;;
72575;SDS011;60613;48.658;2.328;2023-04-06T13:11:08;4.27;;;1.27;;
72575;SDS011;60613;48.658;2.328;2023-04-06T13:13:34;4.50;;;1.38;;
72575;SDS011;60613;48.658;2.328;2023-04-06T13:16:01;6.83;;;1.33;;
72575;SDS011;60613;48.658;2.328;2023-04-06T13:18:36;4.28;;;1.35;;
72575;SDS011;60613;48.658;2.328;2023-04-06T13:21:03;4.95;;;1.40;;
72575;SDS011;60613;48.658;2.328;2023-04-06T13:23:30;4.32;;;1.30;;
72575;SDS011;60613;48.658;2.328;2023-04-06T13:25:58;4.27;;;1.30;;
72575;SDS011;60613;48.658;2.328;2023-04-06T13:28:25;4.57;;;1.40;;
72575;SDS011;60613;48.658;2.328;2023-04-06T13:30:51;5.65;;;1.25;;
72575;SDS011;60613;48.658;2.328;2023-04-06T13:33:17;5.13;;;1.30;;
72575;SDS011;60613;48.658;2.328;2023-04-06T13:35:46;5.17;;;1.40;;
72575;SDS011;60613;48.658;2.328;2023-04-06T13:38:12;4.40;;;1.15;;
72575;SDS011;60613;48.658;2.328;2023-04-06T13:40:38;3.05;;;1.10;;
72575;SDS011;60613;48.658;2.328;2023-04-06T13:43:05;3.80;;;1.17;;
72575;SDS011;60613;48.658;2.328;2023-04-06T13:45:31;3.00;;;1.10;;
72575;SDS011;60613;48.658;2.328;2023-04-06T13:47:57;3.60;;;1.10;;
72575;SDS011;60613;48.658;2.328;2023-04-06T13:50:22;4.73;;;1.20;;
72575;SDS011;60613;48.658;2.328;2023-04-06T13:52:51;4.03;;;1.20;;
72575;SDS011;60613;48.658;2.328;2023-04-06T13:55:16;3.88;;;1.13;;
72575;SDS011;60613;48.658;2.328;2023-04-06T13:57:42;3.87;;;1.10;;
72575;SDS011;60613;48.658;2.328;2023-04-06T14:00:08;4.00;;;1.00;;
72575;SDS011;60613;48.658;2.328;2023-04-06T14:02:35;4.05;;;1.20;;
72575;SDS011;60613;48.658;2.328;2023-04-06T14:05:01;3.63;;;1.00;;
72575;SDS011;60613;48.658;2.328;2023-04-06T14:07:27;3.30;;;1.10;;
72575;SDS011;60613;48.658;2.328;2023-04-06T14:09:52;3.25;;;1.10;;
72575;SDS011;60613;48.658;2.328;2023-04-06T14:12:18;3.57;;;1.10;;
72575;SDS011;60613;48.658;2.328;2023-04-06T14:14:43;3.63;;;1.10;;
72575;SDS011;60613;48.658;2.328;2023-04-06T14:17:09;3.60;;;1.17;;
72575;SDS011;60613;48.658;2.328;2023-04-06T14:19:35;3.67;;;1.20;;
72575;SDS011;60613;48.658;2.328;2023-04-06T14:22:01;3.00;;;1.10;;
72575;SDS011;60613;48.658;2.328;2023-04-06T14:24:26;3.78;;;1.30;;
72575;SDS011;60613;48.658;2.328;2023-04-06T14:26:52;5.10;;;1.13;;
72575;SDS011;60613;48.658;2.328;2023-04-06T14:29:18;3.97;;;1.20;;
72575;SDS011;60613;48.658;2.328;2023-04-06T14:31:47;3.33;;;1.20;;
72575;SDS011;60613;48.658;2.328;2023-04-06T14:34:13;4.32;;;1.02;;
72575;SDS011;60613;48.658;2.328;2023-04-06T14:36:38;2.92;;;1.08;;
72575;SDS011;60613;48.658;2.328;2023-04-06T14:39:04;3.40;;;1.10;;
72575;SDS011;60613;48.658;2.328;2023-04-06T14:41:31;3.35;;;1.10;;
72575;SDS011;60613;48.658;2.328;2023-04-06T14:43:57;3.85;;;1.10;;
72575;SDS011;60613;48.658;2.328;2023-04-06T14:46:23;2.47;;;1.00;;
72575;SDS011;60613;48.658;2.328;2023-04-06T14:48:48;3.43;;;1.13;;
72575;SDS011;60613;48.658;2.328;2023-04-06T14:51:14;3.97;;;1.20;;
72575;SDS011;60613;48.658;2.328;2023-04-06T14:53:40;4.73;;;1.20;;
72575;SDS011;60613;48.658;2.328;2023-04-06T14:56:06;3.35;;;1.13;;
72575;SDS011;60613;48.658;2.328;2023-04-06T14:58:32;2.50;;;0.97;;
72575;SDS011;60613;48.658;2.328;2023-04-06T15:00:59;4.03;;;1.30;;
72575;SDS011;60613;48.658;2.328;2023-04-06T15:03:28;4.07;;;1.15;;
72575;SDS011;60613;48.658;2.328;2023-04-06T15:05:54;4.30;;;1.10;;
72575;SDS011;60613;48.658;2.328;2023-04-06T15:08:24;4.20;;;1.20;;
72575;SDS011;60613;48.658;2.328;2023-04-06T15:10:50;3.92;;;1.10;;
72575;SDS011;60613;48.658;2.328;2023-04-06T15:13:16;2.80;;;1.00;;
72575;SDS011;60613;48.658;2.328;2023-04-06T15:15:43;3.65;;;1.20;;
72575;SDS011;60613;48.658;2.328;2023-04-06T15:18:09;3.42;;;1.25;;
72575;SDS011;60613;48.658;2.328;2023-04-06T15:20:36;3.67;;;1.03;;
72575;SDS011;60613;48.658;2.328;2023-04-06T15:23:02;6.20;;;1.20;;
72575;SDS011;60613;48.658;2.328;2023-04-06T15:25:28;4.47;;;1.10;;
72575;SDS011;60613;48.658;2.328;2023-04-06T15:27:54;4.03;;;1.10;;
72575;SDS011;60613;48.658;2.328;2023-04-06T15:30:20;4.32;;;1.10;;
72575;SDS011;60613;48.658;2.328;2023-04-06T15:32:55;3.73;;;1.10;;
72575;SDS011;60613;48.658;2.328;2023-04-06T15:35:28;4.18;;;1.10;;
72575;SDS011;60613;48.658;2.328;2023-04-06T15:37:54;5.50;;;1.20;;
72575;SDS011;60613;48.658;2.328;2023-04-06T15:40:21;5.63;;;1.10;;
72575;SDS011;60613;48.658;2.328;2023-04-06T15:42:47;4.77;;;1.13;;
72575;SDS011;60613;48.658;2.328;2023-04-06T15:45:12;4.35;;;1.10;;
72575;SDS011;60613;48.658;2.328;2023-04-06T15:47:39;4.15;;;1.10;;
72575;SDS011;60613;48.658;2.328;2023-04-06T15:50:05;3.50;;;1.10;;
72575;SDS011;60613;48.658;2.328;2023-04-06T15:52:32;4.80;;;0.93;;
72575;SDS011;60613;48.658;2.328;2023-04-06T15:54:58;3.22;;;0.90;;
72575;SDS011;60613;48.658;2.328;2023-04-06T15:57:24;3.10;;;0.90;;
72575;SDS011;60613;48.658;2.328;2023-04-06T15:59:50;5.13;;;1.20;;
72575;SDS011;60613;48.658;2.328;2023-04-06T16:02:16;4.35;;;1.20;;
72575;SDS011;60613;48.658;2.328;2023-04-06T16:04:42;5.47;;;1.17;;
72575;SDS011;60613;48.658;2.328;2023-04-06T16:07:07;5.13;;;1.10;;
72575;SDS011;60613;48.658;2.328;2023-04-06T16:09:33;5.27;;;1.23;;
72575;SDS011;60613;48.658;2.328;2023-04-06T16:11:58;6.47;;;1.50;;
72575;SDS011;60613;48.658;2.328;2023-04-06T16:14:25;7.05;;;1.20;;
72575;SDS011;60613;48.658;2.328;2023-04-06T16:16:51;6.47;;;1.30;;
72575;SDS011;60613;48.658;2.328;2023-04-06T16:19:17;5.85;;;1.27;;
72575;SDS011;60613;48.658;2.328;2023-04-06T16:21:42;4.87;;;1.30;;
72575;SDS011;60613;48.658;2.328;2023-04-06T16:24:08;9.35;;;1.42;;
72575;SDS011;60613;48.658;2.328;2023-04-06T16:26:33;5.40;;;1.20;;
72575;SDS011;60613;48.658;2.328;2023-04-06T16:29:00;4.43;;;1.20;;
72575;SDS011;60613;48.658;2.328;2023-04-06T16:31:25;3.67;;;1.20;;
72575;SDS011;60613;48.658;2.328;2023-04-06T16:33:52;4.07;;;1.30;;
72575;SDS011;60613;48.658;2.328;2023-04-06T16:36:24;6.45;;;1.20;;
72575;SDS011;60613;48.658;2.328;2023-04-06T16:38:57;3.03;;;1.00;;
72575;SDS011;60613;48.658;2.328;2023-04-06T16:41:23;4.38;;;1.05;;
72575;SDS011;60613;48.658;2.328;2023-04-06T16:43:50;3.88;;;1.05;;
72575;SDS011;60613;48.658;2.328;2023-04-06T16:46:17;4.17;;;1.00;;
72575;SDS011;60613;48.658;2.328;2023-04-06T16:48:42;4.18;;;1.17;;
72575;SDS011;60613;48.658;2.328;2023-04-06T16:51:08;3.53;;;1.00;;
72575;SDS011;60613;48.658;2.328;2023-04-06T16:53:35;3.92;;;1.20;;
72575;SDS011;60613;48.658;2.328;2023-04-06T16:56:05;4.40;;;1.20;;
72575;SDS011;60613;48.658;2.328;2023-04-06T16:58:34;3.65;;;1.20;;
72575;SDS011;60613;48.658;2.328;2023-04-06T17:01:01;3.92;;;1.10;;
72575;SDS011;60613;48.658;2.328;2023-04-06T17:03:27;4.17;;;1.17;;
72575;SDS011;60613;48.658;2.328;2023-04-06T17:05:53;2.50;;;1.00;;
72575;SDS011;60613;48.658;2.328;2023-04-06T17:08:19;3.40;;;1.23;;
72575;SDS011;60613;48.658;2.328;2023-04-06T17:10:45;3.83;;;1.00;;
72575;SDS011;60613;48.658;2.328;2023-04-06T17:13:11;5.13;;;1.30;;
72575;SDS011;60613;48.658;2.328;2023-04-06T17:15:36;5.87;;;1.47;;
72575;SDS011;60613;48.658;2.328;2023-04-06T17:18:02;4.28;;;1.33;;
72575;SDS011;60613;48.658;2.328;2023-04-06T17:20:28;4.67;;;1.30;;
72575;SDS011;60613;48.658;2.328;2023-04-06T17:22:53;4.10;;;1.42;;
72575;SDS011;60613;48.658;2.328;2023-04-06T17:25:19;5.90;;;1.60;;
72575;SDS011;60613;48.658;2.328;2023-04-06T17:27:45;5.10;;;1.45;;
72575;SDS011;60613;48.658;2.328;2023-04-06T17:30:11;5.03;;;1.60;;
72575;SDS011;60613;48.658;2.328;2023-04-06T17:32:38;4.27;;;1.30;;
72575;SDS011;60613;48.658;2.328;2023-04-06T17:35:04;4.95;;;1.55;;
72575;SDS011;60613;48.658;2.328;2023-04-06T17:37:30;3.88;;;1.38;;
72575;SDS011;60613;48.658;2.328;2023-04-06T17:39:56;3.83;;;1.50;;
72575;SDS011;60613;48.658;2.328;2023-04-06T17:42:21;5.10;;;1.70;;
72575;SDS011;60613;48.658;2.328;2023-04-06T17:44:47;4.13;;;1.70;;
72575;SDS011;60613;48.658;2.328;2023-04-06T17:47:13;6.20;;;1.90;;
72575;SDS011;60613;48.658;2.328;2023-04-06T17:49:40;4.03;;;1.50;;
72575;SDS011;60613;48.658;2.328;2023-04-06T17:52:06;6.95;;;1.83;;
72575;SDS011;60613;48.658;2.328;2023-04-06T17:54:33;4.80;;;1.70;;
72575;SDS011;60613;48.658;2.328;2023-04-06T17:56:59;5.47;;;1.85;;
72575;SDS011;60613;48.658;2.328;2023-04-06T17:59:26;6.25;;;2.10;;
72575;SDS011;60613;48.658;2.328;2023-04-06T18:01:52;5.15;;;1.80;;
72575;SDS011;60613;48.658;2.328;2023-04-06T18:04:17;5.20;;;1.70;;
72575;SDS011;60613;48.658;2.328;2023-04-06T18:06:43;6.32;;;1.95;;
72575;SDS011;60613;48.658;2.328;2023-04-06T18:09:09;4.90;;;1.80;;
72575;SDS011;60613;48.658;2.328;2023-04-06T18:11:35;5.88;;;1.85;;
72575;SDS011;60613;48.658;2.328;2023-04-06T18:14:04;3.97;;;1.67;;
72575;SDS011;60613;48.658;2.328;2023-04-06T18:16:33;4.85;;;1.85;;
72575;SDS011;60613;48.658;2.328;2023-04-06T18:18:59;5.30;;;1.98;;
72575;SDS011;60613;48.658;2.328;2023-04-06T18:21:25;5.38;;;2.03;;
72575;SDS011;60613;48.658;2.328;2023-04-06T18:23:51;5.03;;;1.90;;
72575;SDS011;60613;48.658;2.328;2023-04-06T18:26:18;5.20;;;1.80;;
72575;SDS011;60613;48.658;2.328;2023-04-06T18:28:45;5.43;;;1.80;;
72575;SDS011;60613;48.658;2.328;2023-04-06T18:31:11;4.47;;;1.90;;
72575;SDS011;60613;48.658;2.328;2023-04-06T18:33:37;4.80;;;1.90;;
72575;SDS011;60613;48.658;2.328;2023-04-06T18:36:03;6.22;;;2.00;;
72575;SDS011;60613;48.658;2.328;2023-04-06T18:38:29;6.00;;;2.20;;
72575;SDS011;60613;48.658;2.328;2023-04-06T18:40:55;5.17;;;1.90;;
72575;SDS011;60613;48.658;2.328;2023-04-06T18:43:20;5.43;;;1.98;;
72575;SDS011;60613;48.658;2.328;2023-04-06T18:45:46;5.67;;;2.10;;
72575;SDS011;60613;48.658;2.328;2023-04-06T18:48:11;4.70;;;1.80;;
72575;SDS011;60613;48.658;2.328;2023-04-06T18:50:38;5.32;;;2.05;;
72575;SDS011;60613;48.658;2.328;2023-04-06T18:53:04;5.28;;;2.10;;
72575;SDS011;60613;48.658;2.328;2023-04-06T18:55:33;5.32;;;2.03;;
72575;SDS011;60613;48.658;2.328;2023-04-06T18:58:00;4.95;;;2.10;;
